createdAt,value
2022-10-27T00:00:50.290Z,12.28
2022-10-27T00:03:19.341Z,12.27
2022-10-27T00:05:49.340Z,12.28
2022-10-27T00:08:18.607Z,12.25
2022-10-27T00:10:46.865Z,12.16
2022-10-27T00:13:15.373Z,12.05
2022-10-27T00:15:43.427Z,12.02
2022-10-27T00:18:12.940Z,12.02
2022-10-27T00:20:41.006Z,11.99
2022-10-27T00:23:10.368Z,11.97
2022-10-27T00:25:38.348Z,11.92
2022-10-27T00:28:06.419Z,11.86
2022-10-27T00:30:34.391Z,11.81
2022-10-27T00:33:02.362Z,11.79
2022-10-27T00:35:30.383Z,11.77
2022-10-27T00:37:58.397Z,11.75
2022-10-27T00:40:27.795Z,11.82
2022-10-27T00:42:55.761Z,11.86
2022-10-27T00:45:23.748Z,11.88
2022-10-27T00:47:51.899Z,11.88
2022-10-27T00:50:21.537Z,11.84
2022-10-27T00:52:51.871Z,11.80
2022-10-27T00:55:23.248Z,11.81
2022-10-27T00:57:55.199Z,11.82
2022-10-27T01:00:23.219Z,11.80
2022-10-27T01:02:51.549Z,11.74
2022-10-27T01:05:22.429Z,11.70
2022-10-27T01:07:51.501Z,11.66
2022-10-27T01:10:19.846Z,11.67
2022-10-27T01:12:48.462Z,11.59
2022-10-27T01:15:18.206Z,11.58
2022-10-27T01:17:51.091Z,11.43
2022-10-27T01:20:38.788Z,11.48
2022-10-27T01:23:12.935Z,11.43
2022-10-27T01:26:07.894Z,11.39
2022-10-27T01:29:17.628Z,11.39
2022-10-27T01:31:50.519Z,11.30
2022-10-27T01:34:23.389Z,11.35
2022-10-27T01:36:54.394Z,11.32
2022-10-27T01:39:25.662Z,11.30
2022-10-27T01:41:58.994Z,11.31
2022-10-27T01:44:30.831Z,11.25
2022-10-27T01:47:00.240Z,11.21
2022-10-27T01:49:35.895Z,11.17
2022-10-27T01:52:07.721Z,11.13
2022-10-27T01:54:39.964Z,11.06
2022-10-27T01:57:19.829Z,11.09
2022-10-27T01:59:58.226Z,11.06
2022-10-27T02:02:34.515Z,11.08
2022-10-27T02:05:07.165Z,11.08
2022-10-27T02:07:43.098Z,11.12
2022-10-27T02:10:15.307Z,11.17
2022-10-27T02:12:44.509Z,11.20
2022-10-27T02:15:20.879Z,11.22
2022-10-27T02:17:51.448Z,11.24
2022-10-27T02:20:21.677Z,11.27
2022-10-27T02:22:51.586Z,11.29
2022-10-27T02:25:23.357Z,11.28
2022-10-27T02:27:58.447Z,11.29
2022-10-27T02:30:26.469Z,11.31
2022-10-27T02:32:55.804Z,11.30
2022-10-27T02:35:23.988Z,11.29
2022-10-27T02:37:52.133Z,11.27
2022-10-27T02:40:20.187Z,11.25
2022-10-27T02:42:48.275Z,11.25
2022-10-27T02:45:16.467Z,11.23
2022-10-27T02:47:44.424Z,11.26
2022-10-27T02:50:13.812Z,11.27
2022-10-27T02:52:43.987Z,11.23
2022-10-27T02:55:12.406Z,11.20
2022-10-27T02:57:40.424Z,11.17
2022-10-27T03:00:09.801Z,11.12
2022-10-27T03:02:37.792Z,11.03
2022-10-27T03:05:06.340Z,11.02
2022-10-27T03:07:35.742Z,10.93
2022-10-27T03:10:03.794Z,10.94
2022-10-27T03:12:31.945Z,10.91
2022-10-27T03:14:59.982Z,10.81
2022-10-27T03:17:27.960Z,10.82
2022-10-27T03:19:56.030Z,10.83
2022-10-27T03:22:24.022Z,10.82
2022-10-27T03:24:53.376Z,10.75
2022-10-27T03:27:21.357Z,10.74
2022-10-27T03:29:49.333Z,10.67
2022-10-27T03:32:17.330Z,10.61
2022-10-27T03:34:45.321Z,10.67
2022-10-27T03:37:13.343Z,10.71
2022-10-27T03:42:15.614Z,10.64
2022-10-27T03:44:43.626Z,10.63
2022-10-27T03:47:11.675Z,10.58
2022-10-27T03:49:39.665Z,10.50
2022-10-27T03:52:07.769Z,10.54
2022-10-27T03:54:35.781Z,10.47
2022-10-27T03:57:03.867Z,10.41
2022-10-27T03:59:33.246Z,10.40
2022-10-27T04:02:03.585Z,10.36
2022-10-27T04:04:35.192Z,10.30
2022-10-27T04:07:03.238Z,10.25
2022-10-27T04:09:31.336Z,10.36
2022-10-27T04:12:00.062Z,10.34
2022-10-27T04:14:28.142Z,10.24
2022-10-27T04:16:57.553Z,10.19
2022-10-27T04:19:25.623Z,10.18
2022-10-27T04:21:53.682Z,10.12
2022-10-27T04:24:21.698Z,10.07
2022-10-27T04:26:49.766Z,10.03
2022-10-27T04:29:17.781Z,10.02
2022-10-27T04:31:45.832Z,10.07
2022-10-27T04:34:15.183Z,10.07
2022-10-27T04:36:43.164Z,10.03
2022-10-27T04:39:14.101Z,10.02
2022-10-27T04:41:42.196Z,9.96
2022-10-27T04:44:10.353Z,9.93
2022-10-27T04:46:38.382Z,9.94
2022-10-27T04:49:06.461Z,9.93
2022-10-27T04:51:35.870Z,9.93
2022-10-27T04:54:03.996Z,9.93
2022-10-27T04:56:32.002Z,9.97
2022-10-27T04:59:00.049Z,9.96
2022-10-27T05:01:28.116Z,9.95
2022-10-27T05:03:56.256Z,9.95
2022-10-27T05:06:24.294Z,10.02
2022-10-27T05:11:26.935Z,9.92
2022-10-27T05:13:54.998Z,9.90
2022-10-27T05:16:23.066Z,9.88
2022-10-27T05:18:51.145Z,9.94
2022-10-27T05:21:19.250Z,9.99
2022-10-27T05:23:47.937Z,9.91
2022-10-27T05:26:17.378Z,9.96
2022-10-27T05:28:46.712Z,9.94
2022-10-27T05:31:14.798Z,9.98
2022-10-27T05:33:42.833Z,9.95
2022-10-27T05:36:11.056Z,9.87
2022-10-27T05:38:39.593Z,9.90
2022-10-27T05:41:07.728Z,9.91
2022-10-27T05:43:39.671Z,9.96
2022-10-27T05:46:09.846Z,9.90
2022-10-27T05:48:37.860Z,9.87
2022-10-27T05:51:06.025Z,9.86
2022-10-27T05:53:34.060Z,9.79
2022-10-27T05:56:02.128Z,9.75
2022-10-27T05:58:30.169Z,9.68
2022-10-27T06:01:00.592Z,9.67
2022-10-27T06:03:28.688Z,9.65
2022-10-27T06:05:56.812Z,9.62
2022-10-27T06:08:25.204Z,9.58
2022-10-27T06:10:53.290Z,9.58
2022-10-27T06:13:21.423Z,9.59
2022-10-27T06:15:49.658Z,9.57
2022-10-27T06:18:19.212Z,9.60
2022-10-27T06:20:47.433Z,9.68
2022-10-27T06:23:15.513Z,9.76
2022-10-27T06:25:43.584Z,9.80
2022-10-27T06:28:11.625Z,9.86
2022-10-27T06:30:39.690Z,9.84
2022-10-27T06:33:07.805Z,9.90
2022-10-27T06:35:37.261Z,9.97
2022-10-27T06:38:05.260Z,9.98
2022-10-27T06:40:33.350Z,9.96
2022-10-27T06:43:06.877Z,9.98
2022-10-27T06:45:36.135Z,9.99
2022-10-27T06:48:04.825Z,10.00
2022-10-27T06:50:33.365Z,10.00
2022-10-27T06:53:02.814Z,10.03
2022-10-27T06:55:31.558Z,9.98
2022-10-27T06:57:59.753Z,9.98
2022-10-27T07:00:27.955Z,10.01
2022-10-27T07:02:56.006Z,10.03
2022-10-27T07:05:24.072Z,10.06
2022-10-27T07:07:53.692Z,10.07
2022-10-27T07:10:23.709Z,10.07
2022-10-27T07:12:53.729Z,10.09
2022-10-27T07:15:22.182Z,10.11
2022-10-27T07:17:55.110Z,10.14
2022-10-27T07:20:26.689Z,10.16
2022-10-27T07:22:54.694Z,10.16
2022-10-27T07:25:24.139Z,10.21
2022-10-27T07:27:54.272Z,10.24
2022-10-27T07:30:24.090Z,10.23
2022-10-27T07:32:52.265Z,10.25
2022-10-27T07:35:20.469Z,10.28
2022-10-27T07:37:49.030Z,10.32
2022-10-27T07:40:18.745Z,10.35
2022-10-27T07:42:49.538Z,10.41
2022-10-27T07:45:19.851Z,10.45
2022-10-27T07:47:49.765Z,10.49
2022-10-27T07:50:18.284Z,10.51
2022-10-27T07:52:47.791Z,10.56
2022-10-27T07:55:17.450Z,10.60
2022-10-27T07:57:45.984Z,10.64
2022-10-27T08:00:17.015Z,10.68
2022-10-27T08:02:45.953Z,10.72
2022-10-27T08:05:13.951Z,10.77
2022-10-27T08:07:42.234Z,10.76
2022-10-27T08:10:10.814Z,10.85
2022-10-27T08:12:43.163Z,10.90
2022-10-27T08:15:12.273Z,10.89
2022-10-27T08:17:41.743Z,10.96
2022-10-27T08:20:11.405Z,10.97
2022-10-27T08:22:39.417Z,10.97
2022-10-27T08:25:10.068Z,11.09
2022-10-27T08:27:38.567Z,11.16
2022-10-27T08:30:08.783Z,11.20
2022-10-27T08:32:36.812Z,11.24
2022-10-27T08:35:06.987Z,11.30
2022-10-27T08:37:35.031Z,11.31
2022-10-27T08:40:03.020Z,11.38
2022-10-27T08:42:37.732Z,11.49
2022-10-27T08:45:09.444Z,11.57
2022-10-27T08:47:37.614Z,11.63
2022-10-27T08:50:11.647Z,11.57
2022-10-27T08:52:41.738Z,11.66
2022-10-27T08:55:21.310Z,11.74
2022-10-27T08:57:54.158Z,11.80
2022-10-27T09:00:22.849Z,11.87
2022-10-27T09:03:07.088Z,11.92
2022-10-27T09:05:45.039Z,12.00
2022-10-27T09:08:19.549Z,11.98
2022-10-27T09:10:55.393Z,12.02
2022-10-27T09:13:38.354Z,12.24
2022-10-27T09:16:14.486Z,12.41
2022-10-27T09:18:44.364Z,12.44
2022-10-27T09:21:18.291Z,12.54
2022-10-27T09:23:50.193Z,12.67
2022-10-27T09:26:20.716Z,12.64
2022-10-27T09:28:52.222Z,12.74
2022-10-27T09:31:23.468Z,12.87
2022-10-27T09:33:55.270Z,13.01
2022-10-27T09:36:25.074Z,13.06
2022-10-27T09:38:53.083Z,13.13
2022-10-27T09:41:21.215Z,13.23
2022-10-27T09:43:51.904Z,13.28
2022-10-27T09:46:24.484Z,13.34
2022-10-27T09:48:56.295Z,13.48
2022-10-27T09:51:27.411Z,13.58
2022-10-27T09:53:55.584Z,13.68
2022-10-27T09:56:26.697Z,13.80
2022-10-27T09:58:58.772Z,13.93
2022-10-27T10:01:28.128Z,14.01
2022-10-27T10:04:00.659Z,14.10
2022-10-27T10:06:35.509Z,14.22
2022-10-27T10:09:23.704Z,14.32
2022-10-27T10:11:52.248Z,14.41
2022-10-27T10:14:24.596Z,14.48
2022-10-27T10:16:54.140Z,14.56
2022-10-27T10:19:24.338Z,14.63
2022-10-27T10:21:55.475Z,14.73
2022-10-27T10:24:25.688Z,14.84
2022-10-27T10:26:55.745Z,14.88
2022-10-27T10:29:30.801Z,14.94
2022-10-27T10:32:09.790Z,15.06
2022-10-27T10:34:38.055Z,15.14
2022-10-27T10:37:33.839Z,15.31
2022-10-27T10:40:20.607Z,15.42
2022-10-27T10:42:50.754Z,15.64
2022-10-27T10:45:20.897Z,15.64
2022-10-27T10:47:49.953Z,15.72
2022-10-27T10:50:18.479Z,15.79
2022-10-27T10:52:49.657Z,15.87
2022-10-27T10:55:21.201Z,16.07
2022-10-27T10:57:53.165Z,16.04
2022-10-27T11:00:22.555Z,16.14
2022-10-27T11:02:59.022Z,16.26
2022-10-27T11:05:31.520Z,16.36
2022-10-27T11:08:01.174Z,16.45
2022-10-27T11:10:32.247Z,16.44
2022-10-27T11:13:02.535Z,16.43
2022-10-27T11:15:32.540Z,16.50
2022-10-27T11:18:03.220Z,16.55
2022-10-27T11:20:33.467Z,16.58
2022-10-27T11:23:05.343Z,16.62
2022-10-27T11:25:35.013Z,16.66
2022-10-27T11:28:11.633Z,16.70
2022-10-27T11:30:44.630Z,16.83
2022-10-27T11:33:17.181Z,16.96
2022-10-27T11:35:52.967Z,17.00
2022-10-27T11:41:00.331Z,17.08
2022-10-27T11:43:32.364Z,17.12
2022-10-27T11:46:05.129Z,17.06
2022-10-27T11:48:38.259Z,17.11
2022-10-27T11:51:08.405Z,17.12
2022-10-27T11:53:40.373Z,17.13
2022-10-27T11:56:20.322Z,17.18
2022-10-27T11:58:56.282Z,17.16
2022-10-27T12:01:37.086Z,17.20
2022-10-27T12:04:17.202Z,17.25
2022-10-27T12:06:49.801Z,17.26
2022-10-27T12:09:27.989Z,17.30
2022-10-27T12:12:03.506Z,17.43
2022-10-27T12:14:35.333Z,17.55
2022-10-27T12:17:07.194Z,17.51
2022-10-27T12:19:38.154Z,17.63
2022-10-27T12:22:09.063Z,17.71
2022-10-27T12:24:41.024Z,17.61
2022-10-27T12:27:13.713Z,17.69
2022-10-27T12:29:46.392Z,17.82
2022-10-27T12:32:17.674Z,17.85
2022-10-27T12:34:50.217Z,17.79
2022-10-27T12:37:23.632Z,17.93
2022-10-27T12:39:56.935Z,17.84
2022-10-27T12:42:32.115Z,17.86
2022-10-27T12:45:06.873Z,17.80
2022-10-27T12:47:42.892Z,17.92
2022-10-27T12:50:19.498Z,17.87
2022-10-27T12:52:52.794Z,17.95
2022-10-27T12:55:34.938Z,18.00
2022-10-27T12:58:04.217Z,18.06
2022-10-27T13:00:40.785Z,18.22
2022-10-27T13:03:25.730Z,18.10
2022-10-27T13:06:08.229Z,18.08
2022-10-27T13:09:08.949Z,18.12
2022-10-27T13:11:58.288Z,18.04
2022-10-27T13:14:40.355Z,18.13
2022-10-27T13:17:12.620Z,18.22
2022-10-27T13:19:45.663Z,18.12
2022-10-27T13:22:18.588Z,18.15
2022-10-27T13:24:54.145Z,18.23
2022-10-27T13:27:25.423Z,18.32
2022-10-27T13:29:57.206Z,18.41
2022-10-27T13:32:42.249Z,18.40
2022-10-27T13:35:37.397Z,18.49
2022-10-27T13:38:22.768Z,18.54
2022-10-27T13:40:52.118Z,18.53
2022-10-27T13:43:48.988Z,18.55
2022-10-27T13:46:19.344Z,18.46
2022-10-27T13:48:48.493Z,18.37
2022-10-27T13:51:49.082Z,18.43
2022-10-27T13:54:56.965Z,18.43
2022-10-27T13:57:56.648Z,18.55
2022-10-27T14:00:32.924Z,18.58
2022-10-27T14:03:15.625Z,18.61
2022-10-27T14:08:20.881Z,18.65
2022-10-27T14:10:48.916Z,18.58
2022-10-27T14:13:42.542Z,18.65
2022-10-27T14:16:17.353Z,18.67
2022-10-27T14:18:46.297Z,18.67
2022-10-27T14:21:19.163Z,18.63
2022-10-27T14:23:47.501Z,18.56
2022-10-27T14:26:38.918Z,19.11
2022-10-27T14:29:07.692Z,20.24
2022-10-27T14:31:37.385Z,20.21
2022-10-27T14:34:18.141Z,19.99
2022-10-27T14:36:46.726Z,19.87
2022-10-27T14:39:32.715Z,19.77
2022-10-27T14:42:02.951Z,19.77
2022-10-27T14:44:32.918Z,19.67
2022-10-27T14:47:04.783Z,19.56
2022-10-27T14:49:35.178Z,19.58
2022-10-27T14:52:05.658Z,19.47
2022-10-27T14:54:33.725Z,19.39
2022-10-27T14:57:29.651Z,19.45
2022-10-27T14:59:57.648Z,19.27
2022-10-27T15:02:27.677Z,19.18
2022-10-27T15:04:55.696Z,19.29
2022-10-27T15:07:24.012Z,19.25
2022-10-27T15:09:53.319Z,19.27
2022-10-27T15:12:25.349Z,19.27
2022-10-27T15:14:54.755Z,19.24
2022-10-27T15:17:30.471Z,19.30
2022-10-27T15:20:00.048Z,19.28
2022-10-27T15:22:28.662Z,19.20
2022-10-27T15:24:57.545Z,19.20
2022-10-27T15:27:25.769Z,19.21
2022-10-27T15:29:55.836Z,19.20
2022-10-27T15:32:32.447Z,19.18
2022-10-27T15:35:00.548Z,19.17
2022-10-27T15:37:30.752Z,19.07
2022-10-27T15:40:22.340Z,18.99
2022-10-27T15:42:50.725Z,18.98
2022-10-27T15:45:44.765Z,18.82
2022-10-27T15:51:11.156Z,18.69
2022-10-27T15:53:45.560Z,18.54
2022-10-27T15:56:26.562Z,18.46
2022-10-27T15:59:12.836Z,18.45
2022-10-27T16:01:43.615Z,18.45
2022-10-27T16:04:23.485Z,18.39
2022-10-27T16:09:37.565Z,18.28
2022-10-27T16:12:06.853Z,18.26
2022-10-27T16:14:34.845Z,18.15
2022-10-27T16:17:02.897Z,18.06
2022-10-27T16:22:05.169Z,18.03
2022-10-27T16:24:33.164Z,17.98
2022-10-27T16:27:01.160Z,17.90
2022-10-27T16:29:31.840Z,17.82
2022-10-27T16:31:59.921Z,17.75
2022-10-27T16:34:29.797Z,17.70
2022-10-27T16:37:00.215Z,17.67
2022-10-27T16:39:29.591Z,17.59
2022-10-27T16:41:58.212Z,17.51
2022-10-27T16:44:27.053Z,17.42
2022-10-27T16:46:56.661Z,17.36
2022-10-27T16:49:24.637Z,17.24
2022-10-27T16:51:52.665Z,17.11
2022-10-27T16:54:20.678Z,17.10
2022-10-27T16:56:50.093Z,17.08
2022-10-27T16:59:18.061Z,17.02
2022-10-27T17:02:10.939Z,16.97
2022-10-27T17:04:39.039Z,16.91
2022-10-27T17:07:07.043Z,16.86
2022-10-27T17:09:35.068Z,16.81
2022-10-27T17:12:04.652Z,16.75
2022-10-27T17:14:33.660Z,16.69
2022-10-27T17:17:01.910Z,16.61
2022-10-27T17:19:30.893Z,16.57
2022-10-27T17:21:58.875Z,16.53
2022-10-27T17:24:26.848Z,16.49
2022-10-27T17:26:54.860Z,16.43
2022-10-27T17:29:24.267Z,16.34
2022-10-27T17:31:52.253Z,16.29
2022-10-27T17:34:21.509Z,16.25
2022-10-27T17:36:49.517Z,16.19
2022-10-27T17:39:17.581Z,16.14
2022-10-27T17:41:45.971Z,16.09
2022-10-27T17:44:14.032Z,16.04
2022-10-27T17:46:43.359Z,15.98
2022-10-27T17:49:11.534Z,15.91
2022-10-27T17:51:39.680Z,15.87
2022-10-27T17:54:07.719Z,15.82
2022-10-27T17:56:37.140Z,15.77
2022-10-27T17:59:06.790Z,15.73
2022-10-27T18:01:35.441Z,15.67
2022-10-27T18:04:07.016Z,15.60
2022-10-27T18:06:35.930Z,15.53
2022-10-27T18:09:04.367Z,15.50
2022-10-27T18:11:33.741Z,15.45
2022-10-27T18:14:04.350Z,15.40
2022-10-27T18:16:34.785Z,15.37
2022-10-27T18:19:05.466Z,15.31
2022-10-27T18:21:35.734Z,15.29
2022-10-27T18:24:04.693Z,15.22
2022-10-27T18:26:34.321Z,15.16
2022-10-27T18:29:02.437Z,15.11
2022-10-27T18:31:35.975Z,15.05
2022-10-27T18:34:06.625Z,15.00
2022-10-27T18:36:35.303Z,14.99
2022-10-27T18:39:04.526Z,14.94
2022-10-27T18:41:34.329Z,14.91
2022-10-27T18:44:02.886Z,14.84
2022-10-27T18:46:30.898Z,14.72
2022-10-27T18:49:00.065Z,14.61
2022-10-27T18:51:30.839Z,14.62
2022-10-27T18:53:59.958Z,14.58
2022-10-27T18:56:28.125Z,14.53
2022-10-27T18:58:57.370Z,14.32
2022-10-27T19:01:26.417Z,14.27
2022-10-27T19:03:55.544Z,14.36
2022-10-27T19:06:24.759Z,14.40
2022-10-27T19:08:54.334Z,14.34
2022-10-27T19:11:25.621Z,14.33
2022-10-27T19:13:53.801Z,14.31
2022-10-27T19:16:23.858Z,14.30
2022-10-27T19:18:51.884Z,14.26
2022-10-27T19:21:20.926Z,14.22
2022-10-27T19:23:54.009Z,14.18
2022-10-27T19:26:25.013Z,14.12
2022-10-27T19:28:53.327Z,14.11
2022-10-27T19:31:23.181Z,14.11
2022-10-27T19:33:53.175Z,14.07
2022-10-27T19:36:23.111Z,14.04
2022-10-27T19:38:51.649Z,13.99
2022-10-27T19:41:21.200Z,13.97
2022-10-27T19:43:53.726Z,13.93
2022-10-27T19:46:22.031Z,13.85
2022-10-27T19:48:51.417Z,13.80
2022-10-27T19:51:22.414Z,13.79
2022-10-27T19:53:50.446Z,13.79
2022-10-27T19:56:19.097Z,13.77
2022-10-27T19:58:52.927Z,13.76
2022-10-27T20:01:22.778Z,13.58
2022-10-27T20:03:51.380Z,13.54
2022-10-27T20:06:19.572Z,13.55
2022-10-27T20:08:52.381Z,13.55
2022-10-27T20:11:25.428Z,13.52
2022-10-27T20:13:57.146Z,13.50
2022-10-27T20:16:28.092Z,13.44
2022-10-27T20:18:57.064Z,13.43
2022-10-27T20:21:50.366Z,13.41
2022-10-27T20:24:20.410Z,13.39
2022-10-27T20:29:26.758Z,13.35
2022-10-27T20:31:56.838Z,13.31
2022-10-27T20:34:26.043Z,13.27
2022-10-27T20:36:54.366Z,13.24
2022-10-27T20:39:22.738Z,13.19
2022-10-27T20:41:50.807Z,13.15
2022-10-27T20:44:18.805Z,13.14
2022-10-27T20:46:48.576Z,13.10
2022-10-27T20:49:16.657Z,13.05
2022-10-27T20:51:44.620Z,12.98
2022-10-27T20:54:13.810Z,12.96
2022-10-27T20:56:41.809Z,12.89
2022-10-27T20:59:09.840Z,12.88
2022-10-27T21:01:39.477Z,12.87
2022-10-27T21:04:10.273Z,12.84
2022-10-27T21:06:39.816Z,12.85
2022-10-27T21:09:10.035Z,12.83
2022-10-27T21:11:38.516Z,12.81
2022-10-27T21:14:07.526Z,12.78
2022-10-27T21:16:35.742Z,12.78
2022-10-27T21:19:05.875Z,12.78
2022-10-27T21:21:35.457Z,12.73
2022-10-27T21:24:04.392Z,12.71
2022-10-27T21:26:32.394Z,12.72
2022-10-27T21:29:01.110Z,12.73
2022-10-27T21:31:30.550Z,12.75
2022-10-27T21:34:01.982Z,12.78
2022-10-27T21:36:29.951Z,12.79
2022-10-27T21:38:59.363Z,12.60
2022-10-27T21:41:27.387Z,12.36
2022-10-27T21:43:56.722Z,12.31
2022-10-27T21:46:27.573Z,12.24
2022-10-27T21:48:56.380Z,12.13
2022-10-27T21:51:24.798Z,12.10
2022-10-27T21:54:00.520Z,12.05
2022-10-27T21:56:31.331Z,12.05
2022-10-27T21:58:59.451Z,12.13
2022-10-27T22:01:28.385Z,12.16
2022-10-27T22:03:56.704Z,12.17
2022-10-27T22:06:26.181Z,12.13
2022-10-27T22:08:54.705Z,12.11
2022-10-27T22:11:25.624Z,12.11
2022-10-27T22:13:54.983Z,12.11
2022-10-27T22:16:24.806Z,12.10
2022-10-27T22:18:53.923Z,12.10
2022-10-27T22:21:22.278Z,12.10
2022-10-27T22:23:50.263Z,12.10
2022-10-27T22:26:20.105Z,12.06
2022-10-27T22:28:48.803Z,12.06
2022-10-27T22:31:19.818Z,12.05
2022-10-27T22:33:48.328Z,12.09
2022-10-27T22:36:18.273Z,12.00
2022-10-27T22:38:46.350Z,12.01
2022-10-27T22:41:15.977Z,11.99
2022-10-27T22:43:44.726Z,11.97
2022-10-27T22:46:19.022Z,11.93
2022-10-27T22:48:47.510Z,11.92
2022-10-27T22:51:17.120Z,11.90
2022-10-27T22:53:46.062Z,11.88
2022-10-27T22:56:16.441Z,11.89
2022-10-27T22:58:47.537Z,11.86
2022-10-27T23:01:19.471Z,11.88
2022-10-27T23:03:51.750Z,11.83
2022-10-27T23:06:20.007Z,11.86
2022-10-27T23:08:48.285Z,11.80
2022-10-27T23:11:16.276Z,11.83
2022-10-27T23:13:44.269Z,11.83
2022-10-27T23:16:12.284Z,11.83
2022-10-27T23:18:41.949Z,11.81
2022-10-27T23:21:13.822Z,11.83
2022-10-27T23:23:43.279Z,11.84
2022-10-27T23:26:17.630Z,11.74
2022-10-27T23:28:45.683Z,11.71
2022-10-27T23:31:14.193Z,11.69
2022-10-27T23:33:43.544Z,11.63
2022-10-27T23:36:12.485Z,11.60
2022-10-27T23:38:40.479Z,11.57
2022-10-27T23:41:08.503Z,11.52
2022-10-27T23:43:36.524Z,11.55
2022-10-27T23:46:06.619Z,11.55
2022-10-27T23:48:35.610Z,11.54
2022-10-27T23:51:05.840Z,11.52
2022-10-27T23:53:33.970Z,11.49
2022-10-27T23:56:03.641Z,11.41
2022-10-27T23:58:33.208Z,11.40
